createdAt,value
2023-01-03T00:01:52.379Z,15.75
2023-01-03T00:04:21.413Z,15.35
2023-01-03T00:06:52.928Z,15.55
2023-01-03T00:09:24.305Z,15.07
2023-01-03T00:12:12.509Z,14.40
2023-01-03T00:14:43.387Z,16.10
2023-01-03T00:17:12.789Z,16.48
2023-01-03T00:19:44.841Z,17.27
2023-01-03T00:22:14.459Z,16.92
2023-01-03T00:24:43.510Z,17.08
2023-01-03T00:27:11.582Z,15.35
2023-01-03T00:29:39.546Z,14.30
2023-01-03T00:32:07.537Z,14.25
2023-01-03T00:34:36.258Z,12.52
2023-01-03T00:37:04.741Z,13.00
2023-01-03T00:39:33.234Z,14.13
2023-01-03T00:42:00.579Z,13.65
2023-01-03T00:44:28.329Z,14.38
2023-01-03T00:46:55.760Z,14.40
2023-01-03T00:49:23.955Z,13.95
2023-01-03T00:51:53.868Z,14.27
2023-01-03T00:54:22.796Z,15.05
2023-01-03T00:56:51.537Z,14.90
2023-01-03T00:59:21.548Z,14.73
2023-01-03T01:01:53.528Z,14.07
2023-01-03T01:04:31.837Z,15.38
2023-01-03T01:07:04.525Z,14.88
2023-01-03T01:09:37.046Z,14.73
2023-01-03T01:12:07.300Z,14.98
2023-01-03T01:14:35.417Z,14.63
2023-01-03T01:17:07.933Z,15.15
2023-01-03T01:19:42.968Z,15.55
2023-01-03T01:22:11.986Z,14.55
2023-01-03T01:24:39.888Z,14.40
2023-01-03T01:27:07.457Z,14.43
2023-01-03T01:29:35.151Z,14.15
2023-01-03T01:32:03.856Z,14.27
2023-01-03T01:34:31.730Z,14.60
2023-01-03T01:36:59.400Z,14.27
2023-01-03T01:39:29.163Z,14.63
2023-01-03T01:42:27.312Z,15.27
2023-01-03T01:45:05.023Z,15.50
2023-01-03T01:47:54.515Z,15.13
2023-01-03T01:50:46.293Z,15.35
2023-01-03T01:53:30.162Z,15.48
2023-01-03T01:56:14.913Z,15.05
2023-01-03T01:58:46.040Z,14.60
2023-01-03T02:01:17.858Z,15.18
2023-01-03T02:04:01.555Z,15.82
2023-01-03T02:06:32.580Z,14.82
2023-01-03T02:09:00.483Z,15.25
2023-01-03T02:12:14.391Z,14.55
2023-01-03T02:15:08.808Z,14.10
2023-01-03T02:18:09.387Z,13.73
2023-01-03T02:21:19.586Z,15.23
2023-01-03T02:24:12.163Z,14.63
2023-01-03T02:27:03.129Z,15.00
2023-01-03T02:29:36.194Z,14.40
2023-01-03T02:32:52.933Z,14.38
2023-01-03T02:35:40.583Z,14.75
2023-01-03T02:38:36.287Z,14.68
2023-01-03T02:41:23.406Z,14.63
2023-01-03T02:44:05.890Z,14.10
2023-01-03T02:46:49.473Z,15.65
2023-01-03T02:49:38.059Z,16.27
2023-01-03T02:52:14.102Z,16.23
2023-01-03T02:54:48.211Z,15.52
2023-01-03T02:57:26.983Z,13.27
2023-01-03T03:00:19.805Z,14.88
2023-01-03T03:02:54.455Z,12.30
2023-01-03T03:06:09.820Z,13.65
2023-01-03T03:08:37.908Z,11.55
2023-01-03T03:11:24.182Z,11.63
2023-01-03T03:14:01.835Z,11.93
2023-01-03T03:16:48.845Z,11.50
2023-01-03T03:19:53.699Z,11.63
2023-01-03T03:23:05.034Z,11.18
2023-01-03T03:25:59.749Z,11.73
2023-01-03T03:28:37.488Z,10.88
2023-01-03T03:31:26.026Z,11.68
2023-01-03T03:34:18.752Z,11.65
2023-01-03T03:37:10.443Z,12.18
2023-01-03T03:39:56.958Z,11.88
2023-01-03T03:43:03.263Z,12.40
2023-01-03T03:45:52.325Z,11.65
2023-01-03T03:49:07.477Z,12.07
2023-01-03T03:51:38.900Z,12.05
2023-01-03T03:54:15.590Z,11.75
2023-01-03T03:56:48.355Z,12.65
2023-01-03T03:59:20.472Z,11.40
2023-01-03T04:01:49.269Z,11.93
2023-01-03T04:04:27.432Z,12.00
2023-01-03T04:06:55.186Z,11.82
2023-01-03T04:09:23.041Z,12.30
2023-01-03T04:11:50.374Z,11.75
2023-01-03T04:14:18.024Z,12.25
2023-01-03T04:16:45.275Z,10.82
2023-01-03T04:19:12.979Z,10.93
2023-01-03T04:21:40.344Z,11.45
2023-01-03T04:24:08.403Z,11.70
2023-01-03T04:26:35.771Z,12.50
2023-01-03T04:29:03.316Z,12.65
2023-01-03T04:31:30.804Z,12.82
2023-01-03T04:33:58.382Z,13.30
2023-01-03T04:36:25.729Z,12.98
2023-01-03T04:38:53.321Z,13.02
2023-01-03T04:41:20.713Z,12.98
2023-01-03T04:44:04.491Z,14.65
2023-01-03T04:46:38.650Z,14.05
2023-01-03T04:49:10.250Z,13.40
2023-01-03T04:51:38.493Z,14.40
2023-01-03T04:54:07.290Z,15.25
2023-01-03T04:56:38.379Z,14.43
2023-01-03T04:59:06.080Z,13.68
2023-01-03T05:01:33.773Z,14.82
2023-01-03T05:04:02.757Z,14.05
2023-01-03T05:06:30.800Z,14.65
2023-01-03T05:08:58.379Z,15.60
2023-01-03T05:11:25.660Z,16.67
2023-01-03T05:13:53.280Z,18.23
2023-01-03T05:16:20.601Z,18.77
2023-01-03T05:18:51.367Z,18.80
2023-01-03T05:21:40.654Z,19.52
2023-01-03T05:24:30.986Z,19.40
2023-01-03T05:27:04.430Z,19.08
2023-01-03T05:29:36.614Z,18.75
2023-01-03T05:32:04.234Z,18.98
2023-01-03T05:34:31.864Z,19.17
2023-01-03T05:36:59.202Z,19.25
2023-01-03T05:39:26.777Z,19.63
2023-01-03T05:42:00.148Z,18.52
2023-01-03T05:44:33.975Z,19.67
2023-01-03T05:47:04.324Z,19.13
2023-01-03T05:49:32.013Z,18.83
2023-01-03T05:51:59.297Z,18.67
2023-01-03T05:54:27.070Z,19.73
2023-01-03T05:56:54.495Z,21.50
2023-01-03T05:59:22.926Z,18.05
2023-01-03T06:01:51.006Z,19.33
2023-01-03T06:04:18.953Z,17.80
2023-01-03T06:06:46.991Z,18.77
2023-01-03T06:09:14.720Z,18.85
2023-01-03T06:11:43.049Z,18.38
2023-01-03T06:14:10.903Z,17.50
2023-01-03T06:16:56.928Z,17.15
2023-01-03T06:19:24.793Z,16.77
2023-01-03T06:21:52.161Z,17.13
2023-01-03T06:24:19.735Z,17.92
2023-01-03T06:26:47.080Z,18.63
2023-01-03T06:29:14.870Z,17.38
2023-01-03T06:31:42.182Z,19.40
2023-01-03T06:34:09.713Z,20.58
2023-01-03T06:36:37.485Z,18.52
2023-01-03T06:39:05.073Z,18.45
2023-01-03T06:41:32.423Z,18.25
2023-01-03T06:44:00.049Z,16.80
2023-01-03T06:46:46.165Z,15.73
2023-01-03T06:49:36.758Z,14.15
2023-01-03T06:52:29.887Z,15.73
2023-01-03T06:54:57.479Z,15.55
2023-01-03T06:57:26.586Z,16.15
2023-01-03T06:59:55.798Z,15.35
2023-01-03T07:02:23.387Z,14.93
2023-01-03T07:04:51.261Z,14.98
2023-01-03T07:07:18.655Z,14.75
2023-01-03T07:09:46.280Z,15.20
2023-01-03T07:12:32.314Z,15.30
2023-01-03T07:15:00.037Z,15.27
2023-01-03T07:17:27.349Z,15.68
2023-01-03T07:19:55.057Z,14.38
2023-01-03T07:22:22.395Z,14.50
2023-01-03T07:24:49.959Z,13.95
2023-01-03T07:27:17.222Z,13.88
2023-01-03T07:29:44.808Z,13.82
2023-01-03T07:32:12.083Z,14.48
2023-01-03T07:34:39.692Z,14.38
2023-01-03T07:37:06.971Z,11.50
2023-01-03T07:39:34.512Z,13.20
2023-01-03T07:42:20.558Z,13.57
2023-01-03T07:44:48.155Z,11.70
2023-01-03T07:47:15.483Z,10.85
2023-01-03T07:49:43.034Z,10.63
2023-01-03T07:52:10.343Z,10.07
2023-01-03T07:54:38.044Z,10.52
2023-01-03T07:57:05.352Z,11.77
2023-01-03T07:59:33.000Z,11.02
2023-01-03T08:02:00.429Z,11.15
2023-01-03T08:04:28.530Z,11.18
2023-01-03T08:06:56.272Z,10.35
2023-01-03T08:09:42.804Z,10.73
2023-01-03T08:12:29.697Z,12.95
2023-01-03T08:14:57.355Z,13.13
2023-01-03T08:17:24.642Z,15.25
2023-01-03T08:19:52.311Z,14.25
2023-01-03T08:22:19.643Z,16.25
2023-01-03T08:24:47.261Z,14.63
2023-01-03T08:27:14.583Z,14.63
2023-01-03T08:29:42.153Z,13.27
2023-01-03T08:32:09.548Z,13.88
2023-01-03T08:34:41.856Z,12.43
2023-01-03T08:37:13.046Z,12.13
2023-01-03T08:40:02.434Z,12.32
2023-01-03T08:42:30.786Z,9.98
2023-01-03T08:45:04.288Z,9.93
2023-01-03T08:47:31.731Z,9.70
2023-01-03T08:50:00.704Z,9.55
2023-01-03T08:52:34.570Z,9.93
2023-01-03T08:55:03.795Z,9.32
2023-01-03T08:57:31.727Z,9.63
2023-01-03T08:59:59.387Z,10.18
2023-01-03T09:02:27.012Z,9.45
2023-01-03T09:04:54.839Z,9.68
2023-01-03T09:07:22.203Z,8.73
2023-01-03T09:09:49.743Z,9.27
2023-01-03T09:12:17.172Z,8.95
2023-01-03T09:14:44.886Z,9.13
2023-01-03T09:17:12.259Z,8.68
2023-01-03T09:19:39.941Z,8.68
2023-01-03T09:22:07.246Z,8.57
2023-01-03T09:24:34.984Z,8.20
2023-01-03T09:27:02.552Z,8.57
2023-01-03T09:29:30.385Z,7.63
2023-01-03T09:31:58.272Z,8.40
2023-01-03T09:34:26.519Z,8.50
2023-01-03T09:36:53.862Z,7.53
2023-01-03T09:39:21.533Z,6.82
2023-01-03T09:42:08.961Z,6.88
2023-01-03T09:44:39.687Z,6.70
2023-01-03T09:47:13.957Z,6.40
2023-01-03T09:50:04.647Z,6.10
2023-01-03T09:52:51.810Z,5.97
2023-01-03T09:56:13.991Z,5.88
2023-01-03T09:59:03.352Z,5.93
2023-01-03T10:01:59.640Z,5.07
2023-01-03T10:04:52.187Z,6.32
2023-01-03T10:07:44.092Z,6.25
2023-01-03T10:10:22.350Z,5.68
2023-01-03T10:13:20.177Z,5.53
2023-01-03T10:15:56.737Z,7.75
2023-01-03T10:18:45.022Z,6.55
2023-01-03T10:21:52.275Z,5.80
2023-01-03T10:24:30.510Z,6.00
2023-01-03T10:27:14.121Z,6.47
2023-01-03T10:29:42.716Z,7.38
2023-01-03T10:32:53.253Z,6.57
2023-01-03T10:35:25.110Z,7.13
2023-01-03T10:37:57.542Z,6.72
2023-01-03T10:40:42.591Z,7.30
2023-01-03T10:43:28.538Z,7.30
2023-01-03T10:46:06.625Z,8.00
2023-01-03T10:51:54.244Z,8.80
2023-01-03T10:54:35.778Z,7.95
2023-01-03T10:57:06.288Z,9.05
2023-01-03T10:59:35.044Z,8.73
2023-01-03T11:02:08.577Z,8.57
2023-01-03T11:04:37.893Z,9.07
2023-01-03T11:07:08.172Z,9.75
2023-01-03T11:09:52.134Z,9.55
2023-01-03T11:12:40.308Z,9.95
2023-01-03T11:15:25.240Z,9.85
2023-01-03T11:18:20.897Z,9.60
2023-01-03T11:21:14.396Z,9.40
2023-01-03T11:24:12.638Z,8.52
2023-01-03T11:26:49.937Z,8.73
2023-01-03T11:29:51.376Z,8.25
2023-01-03T11:32:51.510Z,7.90
2023-01-03T11:35:51.608Z,7.47
2023-01-03T11:38:53.978Z,7.43
2023-01-03T11:42:15.475Z,6.15
2023-01-03T11:45:12.391Z,5.78
2023-01-03T11:48:15.831Z,5.38
2023-01-03T11:50:58.495Z,5.95
2023-01-03T11:53:49.591Z,5.40
2023-01-03T11:56:22.764Z,6.22
2023-01-03T11:59:11.376Z,5.15
2023-01-03T12:02:10.683Z,4.60
2023-01-03T12:05:19.255Z,5.47
2023-01-03T12:08:10.208Z,4.95
2023-01-03T12:10:58.783Z,5.38
2023-01-03T12:13:59.401Z,4.63
2023-01-03T12:17:05.947Z,4.88
2023-01-03T12:19:55.300Z,4.22
2023-01-03T12:22:41.843Z,4.13
2023-01-03T12:25:42.209Z,3.33
2023-01-03T12:28:10.391Z,3.20
2023-01-03T12:31:00.393Z,2.83
2023-01-03T12:33:41.210Z,3.05
2023-01-03T12:36:37.711Z,3.15
2023-01-03T12:39:48.346Z,3.03
2023-01-03T12:42:40.696Z,3.08
2023-01-03T12:45:08.214Z,3.90
2023-01-03T12:48:28.773Z,4.10
2023-01-03T12:50:56.472Z,3.22
2023-01-03T12:53:47.125Z,3.30
2023-01-03T12:57:00.004Z,3.58
2023-01-03T13:00:01.474Z,3.65
2023-01-03T13:02:54.425Z,3.30
2023-01-03T13:05:50.570Z,3.53
2023-01-03T13:08:27.102Z,4.18
2023-01-03T13:11:04.813Z,4.05
2023-01-03T13:13:34.604Z,4.22
2023-01-03T13:16:37.244Z,4.80
2023-01-03T13:19:40.258Z,3.80
2023-01-03T13:22:35.345Z,3.13
2023-01-03T13:25:30.459Z,5.72
2023-01-03T13:28:21.247Z,4.15
2023-01-03T13:30:49.308Z,5.70
2023-01-03T13:33:20.825Z,5.03
2023-01-03T13:35:48.427Z,4.68
2023-01-03T13:38:24.993Z,5.22
2023-01-03T13:41:18.221Z,4.63
2023-01-03T13:43:52.540Z,3.80
2023-01-03T13:46:32.963Z,3.50
2023-01-03T13:49:06.836Z,4.25
2023-01-03T13:51:39.095Z,4.25
2023-01-03T13:54:56.152Z,4.10
2023-01-03T13:57:50.681Z,4.47
2023-01-03T14:00:22.452Z,4.53
2023-01-03T14:03:10.000Z,3.85
2023-01-03T14:06:19.871Z,4.65
2023-01-03T14:09:11.630Z,4.15
2023-01-03T14:12:22.318Z,4.28
2023-01-03T14:14:57.588Z,13.02
2023-01-03T14:17:32.329Z,13.15
2023-01-03T14:20:09.701Z,10.18
2023-01-03T14:22:48.368Z,7.63
2023-01-03T14:25:33.087Z,4.60
2023-01-03T14:28:15.497Z,5.50
2023-01-03T14:30:44.676Z,7.22
2023-01-03T14:33:38.393Z,6.30
2023-01-03T14:36:14.102Z,7.90
2023-01-03T14:39:15.521Z,6.00
2023-01-03T14:41:43.927Z,5.97
2023-01-03T14:44:11.148Z,6.47
2023-01-03T14:46:50.467Z,6.80
2023-01-03T14:49:35.352Z,6.30
2023-01-03T14:52:16.864Z,5.53
2023-01-03T14:54:49.638Z,7.28
2023-01-03T14:57:26.498Z,6.45
2023-01-03T15:00:00.074Z,6.03
2023-01-03T15:02:35.129Z,6.35
2023-01-03T15:05:04.206Z,6.97
2023-01-03T15:07:39.628Z,7.70
2023-01-03T15:10:12.844Z,8.57
2023-01-03T15:12:49.854Z,7.88
2023-01-03T15:15:27.627Z,10.48
2023-01-03T15:18:04.059Z,10.18
2023-01-03T15:20:43.588Z,9.20
2023-01-03T15:23:41.566Z,7.57
2023-01-03T15:26:22.470Z,7.72
2023-01-03T15:28:56.326Z,7.68
2023-01-03T15:31:47.452Z,8.73
2023-01-03T15:34:38.664Z,9.18
2023-01-03T15:37:24.081Z,8.82
2023-01-03T15:39:55.764Z,9.23
2023-01-03T15:42:58.047Z,11.00
2023-01-03T15:45:38.544Z,10.80
2023-01-03T15:48:15.121Z,9.75
2023-01-03T15:50:56.049Z,10.40
2023-01-03T15:53:42.803Z,12.52
2023-01-03T15:56:34.572Z,11.93
2023-01-03T15:59:09.445Z,13.15
2023-01-03T16:01:37.181Z,12.35
2023-01-03T16:04:04.790Z,11.98
2023-01-03T16:06:32.898Z,11.65
2023-01-03T16:09:00.251Z,10.95
2023-01-03T16:11:33.694Z,11.18
2023-01-03T16:14:08.457Z,12.15
2023-01-03T16:16:41.959Z,12.02
2023-01-03T16:19:24.616Z,11.55
2023-01-03T16:22:32.571Z,12.27
2023-01-03T16:24:45.113Z,10.45
2023-01-03T16:27:19.992Z,12.38
2023-01-03T16:29:47.636Z,13.20
2023-01-03T16:32:20.584Z,13.52
2023-01-03T16:34:49.075Z,15.15
2023-01-03T16:37:17.097Z,14.25
2023-01-03T16:39:48.464Z,16.13
2023-01-03T16:42:16.657Z,16.40
2023-01-03T16:44:46.925Z,16.70
2023-01-03T16:47:34.358Z,18.42
2023-01-03T16:50:11.970Z,18.08
2023-01-03T16:52:45.223Z,19.20
2023-01-03T16:55:28.326Z,22.70
2023-01-03T16:57:57.399Z,19.58
2023-01-03T17:00:31.347Z,22.30
2023-01-03T17:03:00.515Z,32.13
2023-01-03T17:05:36.387Z,35.67
2023-01-03T17:08:29.359Z,44.03
2023-01-03T17:10:58.850Z,43.15
2023-01-03T17:13:41.253Z,49.75
2023-01-03T17:16:23.327Z,51.42
2023-01-03T17:18:53.568Z,46.30
2023-01-03T17:21:34.300Z,38.20
2023-01-03T17:24:27.366Z,35.78
2023-01-03T17:27:03.883Z,28.85
2023-01-03T17:29:32.078Z,27.40
2023-01-03T17:31:59.446Z,26.10
2023-01-03T17:34:31.296Z,28.98
2023-01-03T17:37:01.008Z,37.45
2023-01-03T17:39:28.803Z,40.05
2023-01-03T17:42:16.621Z,31.58
2023-01-03T17:45:08.263Z,20.75
2023-01-03T17:48:02.180Z,20.10
2023-01-03T17:50:32.247Z,19.00
2023-01-03T17:53:02.130Z,23.08
2023-01-03T17:55:31.407Z,20.70
2023-01-03T17:58:03.249Z,18.80
2023-01-03T18:00:32.267Z,20.33
2023-01-03T18:03:02.727Z,19.10
2023-01-03T18:05:31.424Z,24.08
2023-01-03T18:08:01.889Z,21.45
2023-01-03T18:10:46.705Z,27.52
2023-01-03T18:13:34.619Z,33.90
2023-01-03T18:16:03.028Z,30.70
2023-01-03T18:18:32.018Z,28.98
2023-01-03T18:21:00.168Z,28.83
2023-01-03T18:23:31.269Z,32.92
2023-01-03T18:26:04.443Z,48.15
2023-01-03T18:28:32.333Z,50.63
2023-01-03T18:31:00.519Z,53.08
2023-01-03T18:33:28.680Z,44.85
2023-01-03T18:35:56.509Z,35.65
2023-01-03T18:38:33.058Z,30.92
2023-01-03T18:41:05.430Z,24.70
2023-01-03T18:43:34.092Z,22.95
2023-01-03T18:46:01.920Z,25.05
2023-01-03T18:48:29.329Z,21.52
2023-01-03T18:50:59.225Z,23.10
2023-01-03T18:53:32.896Z,30.42
2023-01-03T18:56:01.088Z,50.03
2023-01-03T18:58:40.885Z,52.85
2023-01-03T19:01:11.061Z,54.92
2023-01-03T19:03:45.495Z,54.05
2023-01-03T19:06:25.405Z,57.70
2023-01-03T19:08:52.780Z,53.78
2023-01-03T19:11:29.552Z,51.95
2023-01-03T19:14:01.016Z,48.08
2023-01-03T19:16:32.838Z,54.70
2023-01-03T19:19:00.953Z,54.70
2023-01-03T19:21:36.667Z,58.50
2023-01-03T19:24:18.609Z,48.30
2023-01-03T19:26:52.540Z,45.28
2023-01-03T19:29:28.546Z,39.20
2023-01-03T19:31:57.837Z,33.20
2023-01-03T19:34:27.571Z,37.88
2023-01-03T19:36:55.509Z,34.58
2023-01-03T19:39:25.651Z,36.05
2023-01-03T19:42:18.377Z,37.92
2023-01-03T19:44:46.305Z,36.60
2023-01-03T19:47:18.708Z,38.88
2023-01-03T19:49:47.804Z,40.63
2023-01-03T19:52:19.053Z,34.67
2023-01-03T19:54:46.491Z,43.58
2023-01-03T19:57:32.410Z,38.08
2023-01-03T20:00:02.024Z,33.28
2023-01-03T20:02:40.962Z,43.45
2023-01-03T20:05:30.368Z,40.20
2023-01-03T20:07:58.064Z,43.10
2023-01-03T20:10:27.130Z,41.33
2023-01-03T20:12:57.795Z,39.83
2023-01-03T20:15:29.948Z,39.60
2023-01-03T20:17:58.205Z,35.75
2023-01-03T20:20:30.982Z,37.00
2023-01-03T20:23:12.619Z,35.58
2023-01-03T20:25:40.339Z,35.70
2023-01-03T20:28:31.201Z,34.50
2023-01-03T20:31:02.303Z,42.13
2023-01-03T20:33:30.269Z,39.75
2023-01-03T20:36:17.611Z,38.90
2023-01-03T20:38:53.118Z,36.45
2023-01-03T20:41:20.670Z,39.28
2023-01-03T20:43:50.541Z,33.75
2023-01-03T20:46:22.207Z,37.38
2023-01-03T20:48:59.746Z,44.13
2023-01-03T20:51:27.189Z,48.20
2023-01-03T20:53:55.620Z,49.55
2023-01-03T20:56:26.366Z,40.70
2023-01-03T20:58:54.028Z,41.08
2023-01-03T21:01:21.520Z,37.75
2023-01-03T21:03:49.570Z,35.65
2023-01-03T21:06:26.931Z,45.20
2023-01-03T21:08:54.716Z,42.17
2023-01-03T21:11:29.878Z,46.22
2023-01-03T21:14:01.240Z,49.92
2023-01-03T21:16:41.959Z,45.70
2023-01-03T21:19:22.961Z,42.88
2023-01-03T21:21:55.489Z,48.40
2023-01-03T21:24:25.669Z,51.65
2023-01-03T21:26:53.223Z,54.90
2023-01-03T21:29:22.112Z,47.28
2023-01-03T21:31:49.547Z,60.20
2023-01-03T21:34:21.068Z,64.63
2023-01-03T21:36:49.107Z,56.28
2023-01-03T21:39:17.079Z,52.38
2023-01-03T21:42:03.036Z,46.88
2023-01-03T21:44:30.702Z,40.03
2023-01-03T21:46:58.050Z,39.88
2023-01-03T21:49:25.763Z,37.88
2023-01-03T21:51:53.159Z,32.83
2023-01-03T21:54:21.043Z,30.80
2023-01-03T21:56:48.920Z,27.60
2023-01-03T21:59:17.470Z,26.55
2023-01-03T22:02:05.002Z,25.65
2023-01-03T22:04:33.844Z,24.92
2023-01-03T22:07:01.925Z,26.67
2023-01-03T22:10:10.113Z,25.98
2023-01-03T22:12:37.522Z,25.45
2023-01-03T22:15:05.795Z,27.00
2023-01-03T22:17:39.715Z,29.80
2023-01-03T22:20:11.773Z,26.52
2023-01-03T22:22:41.136Z,30.63
2023-01-03T22:25:13.278Z,30.00
2023-01-03T22:27:40.609Z,28.10
2023-01-03T22:30:13.088Z,26.63
2023-01-03T22:32:41.734Z,26.10
2023-01-03T22:35:11.489Z,25.52
2023-01-03T22:37:39.663Z,27.02
2023-01-03T22:40:12.538Z,27.20
2023-01-03T22:42:39.853Z,29.35
2023-01-03T22:45:09.854Z,32.08
2023-01-03T22:47:38.173Z,33.45
2023-01-03T22:50:08.468Z,32.83
2023-01-03T22:52:38.243Z,34.22
2023-01-03T22:55:07.692Z,34.05
2023-01-03T22:57:35.120Z,30.98
2023-01-03T23:00:05.776Z,30.45
2023-01-03T23:02:40.895Z,33.33
2023-01-03T23:05:09.459Z,37.58
2023-01-03T23:07:36.776Z,38.22
2023-01-03T23:10:04.712Z,34.60
2023-01-03T23:12:50.731Z,33.75
2023-01-03T23:15:18.315Z,36.63
2023-01-03T23:17:57.385Z,39.05
2023-01-03T23:20:32.747Z,39.85
2023-01-03T23:23:04.675Z,36.45
2023-01-03T23:25:35.710Z,35.47
2023-01-03T23:28:02.941Z,36.92
2023-01-03T23:30:31.255Z,34.70
2023-01-03T23:32:58.619Z,33.88
2023-01-03T23:35:26.122Z,33.17
2023-01-03T23:37:53.421Z,29.98
2023-01-03T23:40:20.980Z,31.15
2023-01-03T23:42:48.213Z,30.40
2023-01-03T23:45:15.836Z,27.88
2023-01-03T23:47:43.049Z,29.42
2023-01-03T23:50:10.631Z,30.13
2023-01-03T23:52:37.971Z,29.98
2023-01-03T23:55:12.234Z,30.67
2023-01-03T23:57:40.240Z,27.40
